sensor_id;sensor_type;location;lat;lon;timestamp;P1;durP1;ratioP1;P2;durP2;ratioP2
29210;SDS011;16250;49.932;10.980;2023-12-04T00:01:12;32.53;;;18.33;;
29210;SDS011;16250;49.932;10.980;2023-12-04T00:03:37;39.13;;;19.23;;
29210;SDS011;16250;49.932;10.980;2023-12-04T00:06:02;34.45;;;18.33;;
29210;SDS011;16250;49.932;10.980;2023-12-04T00:08:28;35.30;;;19.67;;
29210;SDS011;16250;49.932;10.980;2023-12-04T00:10:53;33.60;;;26.38;;
29210;SDS011;16250;49.932;10.980;2023-12-04T00:13:19;38.05;;;19.27;;
29210;SDS011;16250;49.932;10.980;2023-12-04T00:15:44;34.97;;;25.08;;
29210;SDS011;16250;49.932;10.980;2023-12-04T00:18:10;38.22;;;23.73;;
29210;SDS011;16250;49.932;10.980;2023-12-04T00:20:35;36.17;;;20.05;;
29210;SDS011;16250;49.932;10.980;2023-12-04T00:23:01;36.22;;;23.00;;
29210;SDS011;16250;49.932;10.980;2023-12-04T00:25:27;35.05;;;24.17;;
29210;SDS011;16250;49.932;10.980;2023-12-04T00:27:52;36.40;;;20.15;;
29210;SDS011;16250;49.932;10.980;2023-12-04T00:30:18;35.42;;;20.85;;
29210;SDS011;16250;49.932;10.980;2023-12-04T00:32:43;34.30;;;25.52;;
29210;SDS011;16250;49.932;10.980;2023-12-04T00:35:09;35.92;;;27.98;;
29210;SDS011;16250;49.932;10.980;2023-12-04T00:37:34;34.47;;;20.75;;
29210;SDS011;16250;49.932;10.980;2023-12-04T00:40:03;40.33;;;18.88;;
29210;SDS011;16250;49.932;10.980;2023-12-04T00:42:29;35.95;;;18.52;;
29210;SDS011;16250;49.932;10.980;2023-12-04T00:44:55;34.13;;;20.92;;
29210;SDS011;16250;49.932;10.980;2023-12-04T00:47:20;39.13;;;18.58;;
29210;SDS011;16250;49.932;10.980;2023-12-04T00:49:45;35.38;;;25.38;;
29210;SDS011;16250;49.932;10.980;2023-12-04T00:52:11;37.70;;;19.73;;
29210;SDS011;16250;49.932;10.980;2023-12-04T00:54:38;39.75;;;22.10;;
29210;SDS011;16250;49.932;10.980;2023-12-04T00:57:04;37.85;;;20.65;;
29210;SDS011;16250;49.932;10.980;2023-12-04T00:59:30;38.88;;;19.92;;
29210;SDS011;16250;49.932;10.980;2023-12-04T01:01:55;36.65;;;20.55;;
29210;SDS011;16250;49.932;10.980;2023-12-04T01:04:20;40.17;;;20.50;;
29210;SDS011;16250;49.932;10.980;2023-12-04T01:06:46;39.30;;;20.52;;
29210;SDS011;16250;49.932;10.980;2023-12-04T01:09:11;40.60;;;20.67;;
29210;SDS011;16250;49.932;10.980;2023-12-04T01:11:37;40.67;;;23.13;;
29210;SDS011;16250;49.932;10.980;2023-12-04T01:14:02;40.25;;;30.90;;
29210;SDS011;16250;49.932;10.980;2023-12-04T01:16:27;39.65;;;32.75;;
29210;SDS011;16250;49.932;10.980;2023-12-04T01:18:53;45.17;;;33.75;;
29210;SDS011;16250;49.932;10.980;2023-12-04T01:21:19;36.50;;;19.13;;
29210;SDS011;16250;49.932;10.980;2023-12-04T01:23:44;42.17;;;20.58;;
29210;SDS011;16250;49.932;10.980;2023-12-04T01:26:10;38.40;;;20.38;;
29210;SDS011;16250;49.932;10.980;2023-12-04T01:28:35;39.58;;;28.98;;
29210;SDS011;16250;49.932;10.980;2023-12-04T01:31:00;38.80;;;25.70;;
29210;SDS011;16250;49.932;10.980;2023-12-04T01:33:26;36.88;;;20.65;;
29210;SDS011;16250;49.932;10.980;2023-12-04T01:35:51;44.83;;;30.83;;
29210;SDS011;16250;49.932;10.980;2023-12-04T01:38:17;38.08;;;19.30;;
29210;SDS011;16250;49.932;10.980;2023-12-04T01:40:43;36.58;;;19.95;;
29210;SDS011;16250;49.932;10.980;2023-12-04T01:43:08;35.50;;;18.95;;
29210;SDS011;16250;49.932;10.980;2023-12-04T01:45:33;41.00;;;20.17;;
29210;SDS011;16250;49.932;10.980;2023-12-04T01:47:59;33.80;;;17.90;;
29210;SDS011;16250;49.932;10.980;2023-12-04T01:50:24;38.72;;;19.23;;
29210;SDS011;16250;49.932;10.980;2023-12-04T01:52:50;34.03;;;18.98;;
29210;SDS011;16250;49.932;10.980;2023-12-04T01:55:17;38.78;;;29.73;;
29210;SDS011;16250;49.932;10.980;2023-12-04T01:57:42;34.17;;;28.27;;
29210;SDS011;16250;49.932;10.980;2023-12-04T02:00:08;34.55;;;19.25;;
29210;SDS011;16250;49.932;10.980;2023-12-04T02:02:40;34.08;;;26.17;;
29210;SDS011;16250;49.932;10.980;2023-12-04T02:05:09;32.20;;;19.02;;
29210;SDS011;16250;49.932;10.980;2023-12-04T02:07:34;37.38;;;18.52;;
29210;SDS011;16250;49.932;10.980;2023-12-04T02:10:02;40.33;;;24.70;;
29210;SDS011;16250;49.932;10.980;2023-12-04T02:12:28;38.00;;;19.77;;
29210;SDS011;16250;49.932;10.980;2023-12-04T02:14:53;35.10;;;27.70;;
29210;SDS011;16250;49.932;10.980;2023-12-04T02:17:18;36.25;;;19.33;;
29210;SDS011;16250;49.932;10.980;2023-12-04T02:19:44;33.28;;;18.38;;
29210;SDS011;16250;49.932;10.980;2023-12-04T02:22:10;31.88;;;20.67;;
29210;SDS011;16250;49.932;10.980;2023-12-04T02:24:35;30.42;;;17.67;;
29210;SDS011;16250;49.932;10.980;2023-12-04T02:27:04;31.73;;;17.02;;
29210;SDS011;16250;49.932;10.980;2023-12-04T02:29:41;33.15;;;19.52;;
29210;SDS011;16250;49.932;10.980;2023-12-04T02:32:12;29.73;;;16.52;;
29210;SDS011;16250;49.932;10.980;2023-12-04T02:34:40;35.30;;;27.88;;
29210;SDS011;16250;49.932;10.980;2023-12-04T02:37:06;33.83;;;22.33;;
29210;SDS011;16250;49.932;10.980;2023-12-04T02:39:33;35.40;;;20.45;;
29210;SDS011;16250;49.932;10.980;2023-12-04T02:41:58;35.47;;;24.33;;
29210;SDS011;16250;49.932;10.980;2023-12-04T02:44:24;31.27;;;17.63;;
29210;SDS011;16250;49.932;10.980;2023-12-04T02:46:50;34.17;;;28.15;;
29210;SDS011;16250;49.932;10.980;2023-12-04T02:49:15;34.83;;;21.52;;
29210;SDS011;16250;49.932;10.980;2023-12-04T02:51:41;30.63;;;18.10;;
29210;SDS011;16250;49.932;10.980;2023-12-04T02:54:07;32.65;;;17.85;;
29210;SDS011;16250;49.932;10.980;2023-12-04T02:56:32;31.77;;;25.27;;
29210;SDS011;16250;49.932;10.980;2023-12-04T02:58:57;32.72;;;17.63;;
29210;SDS011;16250;49.932;10.980;2023-12-04T03:01:23;32.65;;;18.90;;
29210;SDS011;16250;49.932;10.980;2023-12-04T03:03:48;32.38;;;18.05;;
29210;SDS011;16250;49.932;10.980;2023-12-04T03:06:13;33.20;;;17.95;;
29210;SDS011;16250;49.932;10.980;2023-12-04T03:08:41;33.33;;;18.48;;
29210;SDS011;16250;49.932;10.980;2023-12-04T03:11:07;34.78;;;24.75;;
29210;SDS011;16250;49.932;10.980;2023-12-04T03:13:33;32.67;;;17.92;;
29210;SDS011;16250;49.932;10.980;2023-12-04T03:15:59;30.33;;;17.23;;
29210;SDS011;16250;49.932;10.980;2023-12-04T03:18:24;31.23;;;23.73;;
29210;SDS011;16250;49.932;10.980;2023-12-04T03:20:51;30.48;;;18.85;;
29210;SDS011;16250;49.932;10.980;2023-12-04T03:23:16;34.70;;;18.48;;
29210;SDS011;16250;49.932;10.980;2023-12-04T03:25:41;35.42;;;22.40;;
29210;SDS011;16250;49.932;10.980;2023-12-04T03:28:07;29.58;;;16.73;;
29210;SDS011;16250;49.932;10.980;2023-12-04T03:30:32;34.22;;;24.30;;
29210;SDS011;16250;49.932;10.980;2023-12-04T03:32:58;36.67;;;19.17;;
29210;SDS011;16250;49.932;10.980;2023-12-04T03:35:23;31.88;;;18.20;;
29210;SDS011;16250;49.932;10.980;2023-12-04T03:37:48;31.10;;;17.67;;
29210;SDS011;16250;49.932;10.980;2023-12-04T03:40:15;34.30;;;25.42;;
29210;SDS011;16250;49.932;10.980;2023-12-04T03:42:41;33.92;;;25.85;;
29210;SDS011;16250;49.932;10.980;2023-12-04T03:45:06;31.23;;;20.40;;
29210;SDS011;16250;49.932;10.980;2023-12-04T03:47:32;33.38;;;22.00;;
29210;SDS011;16250;49.932;10.980;2023-12-04T03:49:57;31.08;;;26.35;;
29210;SDS011;16250;49.932;10.980;2023-12-04T03:52:22;33.92;;;28.50;;
29210;SDS011;16250;49.932;10.980;2023-12-04T03:54:48;34.33;;;27.20;;
29210;SDS011;16250;49.932;10.980;2023-12-04T03:57:13;34.33;;;17.27;;
29210;SDS011;16250;49.932;10.980;2023-12-04T03:59:39;33.70;;;27.10;;
29210;SDS011;16250;49.932;10.980;2023-12-04T04:02:04;32.47;;;19.00;;
29210;SDS011;16250;49.932;10.980;2023-12-04T04:04:29;29.40;;;17.58;;
29210;SDS011;16250;49.932;10.980;2023-12-04T04:06:55;33.25;;;22.98;;
29210;SDS011;16250;49.932;10.980;2023-12-04T04:09:20;30.60;;;25.80;;
29210;SDS011;16250;49.932;10.980;2023-12-04T04:11:46;33.60;;;18.90;;
29210;SDS011;16250;49.932;10.980;2023-12-04T04:14:11;29.50;;;25.15;;
29210;SDS011;16250;49.932;10.980;2023-12-04T04:16:36;32.75;;;20.55;;
29210;SDS011;16250;49.932;10.980;2023-12-04T04:19:02;33.42;;;19.98;;
29210;SDS011;16250;49.932;10.980;2023-12-04T04:21:27;31.63;;;22.38;;
29210;SDS011;16250;49.932;10.980;2023-12-04T04:23:53;32.25;;;25.45;;
29210;SDS011;16250;49.932;10.980;2023-12-04T04:26:18;35.08;;;27.33;;
29210;SDS011;16250;49.932;10.980;2023-12-04T04:28:44;32.60;;;18.52;;
29210;SDS011;16250;49.932;10.980;2023-12-04T04:31:09;29.95;;;16.85;;
29210;SDS011;16250;49.932;10.980;2023-12-04T04:33:35;33.33;;;24.83;;
29210;SDS011;16250;49.932;10.980;2023-12-04T04:36:00;33.38;;;28.15;;
29210;SDS011;16250;49.932;10.980;2023-12-04T04:38:25;36.67;;;19.58;;
29210;SDS011;16250;49.932;10.980;2023-12-04T04:40:51;37.05;;;20.00;;
29210;SDS011;16250;49.932;10.980;2023-12-04T04:43:17;34.88;;;18.80;;
29210;SDS011;16250;49.932;10.980;2023-12-04T04:45:44;32.65;;;19.35;;
29210;SDS011;16250;49.932;10.980;2023-12-04T04:48:10;34.00;;;25.23;;
29210;SDS011;16250;49.932;10.980;2023-12-04T04:50:35;34.47;;;20.63;;
29210;SDS011;16250;49.932;10.980;2023-12-04T04:53:00;31.20;;;17.73;;
29210;SDS011;16250;49.932;10.980;2023-12-04T04:55:26;31.65;;;17.77;;
29210;SDS011;16250;49.932;10.980;2023-12-04T04:57:51;31.27;;;20.92;;
29210;SDS011;16250;49.932;10.980;2023-12-04T05:00:17;30.65;;;26.20;;
29210;SDS011;16250;49.932;10.980;2023-12-04T05:02:42;34.60;;;21.60;;
29210;SDS011;16250;49.932;10.980;2023-12-04T05:05:08;31.10;;;18.38;;
29210;SDS011;16250;49.932;10.980;2023-12-04T05:07:33;33.78;;;19.65;;
29210;SDS011;16250;49.932;10.980;2023-12-04T05:09:59;34.92;;;21.10;;
29210;SDS011;16250;49.932;10.980;2023-12-04T05:12:24;36.80;;;28.85;;
29210;SDS011;16250;49.932;10.980;2023-12-04T05:14:49;34.78;;;20.27;;
29210;SDS011;16250;49.932;10.980;2023-12-04T05:17:15;47.72;;;27.77;;
29210;SDS011;16250;49.932;10.980;2023-12-04T05:19:40;47.17;;;23.60;;
29210;SDS011;16250;49.932;10.980;2023-12-04T05:22:05;42.42;;;21.83;;
29210;SDS011;16250;49.932;10.980;2023-12-04T05:24:31;42.55;;;21.90;;
29210;SDS011;16250;49.932;10.980;2023-12-04T05:26:57;37.15;;;19.88;;
29210;SDS011;16250;49.932;10.980;2023-12-04T05:29:23;42.13;;;26.25;;
29210;SDS011;16250;49.932;10.980;2023-12-04T05:31:48;48.13;;;26.17;;
29210;SDS011;16250;49.932;10.980;2023-12-04T05:34:14;45.90;;;24.75;;
29210;SDS011;16250;49.932;10.980;2023-12-04T05:36:39;48.05;;;32.17;;
29210;SDS011;16250;49.932;10.980;2023-12-04T05:39:04;46.20;;;34.97;;
29210;SDS011;16250;49.932;10.980;2023-12-04T05:41:30;45.63;;;24.45;;
29210;SDS011;16250;49.932;10.980;2023-12-04T05:43:55;42.00;;;22.27;;
29210;SDS011;16250;49.932;10.980;2023-12-04T05:46:21;40.90;;;28.90;;
29210;SDS011;16250;49.932;10.980;2023-12-04T05:48:47;38.05;;;28.27;;
29210;SDS011;16250;49.932;10.980;2023-12-04T05:51:12;41.70;;;32.65;;
29210;SDS011;16250;49.932;10.980;2023-12-04T05:53:38;42.30;;;25.05;;
29210;SDS011;16250;49.932;10.980;2023-12-04T05:56:04;67.13;;;31.48;;
29210;SDS011;16250;49.932;10.980;2023-12-04T05:58:30;63.85;;;36.60;;
29210;SDS011;16250;49.932;10.980;2023-12-04T06:00:56;52.78;;;25.17;;
29210;SDS011;16250;49.932;10.980;2023-12-04T06:03:21;55.80;;;27.10;;
29210;SDS011;16250;49.932;10.980;2023-12-04T06:05:46;60.72;;;27.52;;
29210;SDS011;16250;49.932;10.980;2023-12-04T06:08:12;69.55;;;31.02;;
29210;SDS011;16250;49.932;10.980;2023-12-04T06:10:37;58.13;;;27.90;;
29210;SDS011;16250;49.932;10.980;2023-12-04T06:13:03;52.50;;;35.92;;
29210;SDS011;16250;49.932;10.980;2023-12-04T06:15:28;46.00;;;22.40;;
29210;SDS011;16250;49.932;10.980;2023-12-04T06:17:54;46.80;;;35.42;;
29210;SDS011;16250;49.932;10.980;2023-12-04T06:20:19;41.83;;;26.13;;
29210;SDS011;16250;49.932;10.980;2023-12-04T06:22:45;46.17;;;35.58;;
29210;SDS011;16250;49.932;10.980;2023-12-04T06:25:10;43.03;;;32.42;;
29210;SDS011;16250;49.932;10.980;2023-12-04T06:27:36;41.33;;;31.08;;
29210;SDS011;16250;49.932;10.980;2023-12-04T06:30:04;40.60;;;27.00;;
29210;SDS011;16250;49.932;10.980;2023-12-04T06:32:30;43.33;;;33.63;;
29210;SDS011;16250;49.932;10.980;2023-12-04T06:34:56;38.33;;;25.73;;
29210;SDS011;16250;49.932;10.980;2023-12-04T06:37:21;43.33;;;22.05;;
29210;SDS011;16250;49.932;10.980;2023-12-04T06:39:47;41.08;;;27.20;;
29210;SDS011;16250;49.932;10.980;2023-12-04T06:42:13;45.10;;;23.42;;
29210;SDS011;16250;49.932;10.980;2023-12-04T06:44:39;43.25;;;25.08;;
29210;SDS011;16250;49.932;10.980;2023-12-04T06:47:05;41.10;;;30.83;;
29210;SDS011;16250;49.932;10.980;2023-12-04T06:49:33;42.72;;;23.30;;
29210;SDS011;16250;49.932;10.980;2023-12-04T06:51:59;47.35;;;26.73;;
29210;SDS011;16250;49.932;10.980;2023-12-04T06:54:24;43.03;;;35.30;;
29210;SDS011;16250;49.932;10.980;2023-12-04T06:56:50;45.20;;;27.10;;
29210;SDS011;16250;49.932;10.980;2023-12-04T06:59:16;46.83;;;29.90;;
29210;SDS011;16250;49.932;10.980;2023-12-04T07:01:42;46.03;;;25.02;;
29210;SDS011;16250;49.932;10.980;2023-12-04T07:04:08;48.55;;;26.77;;
29210;SDS011;16250;49.932;10.980;2023-12-04T07:06:41;47.05;;;25.80;;
29210;SDS011;16250;49.932;10.980;2023-12-04T07:09:06;47.55;;;30.63;;
29210;SDS011;16250;49.932;10.980;2023-12-04T07:11:34;49.60;;;26.50;;
29210;SDS011;16250;49.932;10.980;2023-12-04T07:14:00;140.40;;;66.35;;
29210;SDS011;16250;49.932;10.980;2023-12-04T07:16:25;44.35;;;24.48;;
29210;SDS011;16250;49.932;10.980;2023-12-04T07:18:51;44.25;;;26.95;;
29210;SDS011;16250;49.932;10.980;2023-12-04T07:21:16;51.88;;;36.90;;
29210;SDS011;16250;49.932;10.980;2023-12-04T07:23:41;46.08;;;25.73;;
29210;SDS011;16250;49.932;10.980;2023-12-04T07:26:07;50.10;;;25.25;;
29210;SDS011;16250;49.932;10.980;2023-12-04T07:28:33;46.78;;;32.90;;
29210;SDS011;16250;49.932;10.980;2023-12-04T07:30:58;49.03;;;31.92;;
29210;SDS011;16250;49.932;10.980;2023-12-04T07:33:24;45.15;;;27.83;;
29210;SDS011;16250;49.932;10.980;2023-12-04T07:35:49;39.50;;;22.80;;
29210;SDS011;16250;49.932;10.980;2023-12-04T07:38:16;42.08;;;23.45;;
29210;SDS011;16250;49.932;10.980;2023-12-04T07:40:41;39.75;;;21.75;;
29210;SDS011;16250;49.932;10.980;2023-12-04T07:43:07;77.35;;;37.30;;
29210;SDS011;16250;49.932;10.980;2023-12-04T07:45:32;108.20;;;49.97;;
29210;SDS011;16250;49.932;10.980;2023-12-04T07:47:59;62.97;;;33.63;;
29210;SDS011;16250;49.932;10.980;2023-12-04T07:50:25;69.30;;;36.63;;
29210;SDS011;16250;49.932;10.980;2023-12-04T07:52:51;60.13;;;31.95;;
29210;SDS011;16250;49.932;10.980;2023-12-04T07:55:16;76.25;;;42.05;;
29210;SDS011;16250;49.932;10.980;2023-12-04T07:57:41;69.97;;;38.58;;
29210;SDS011;16250;49.932;10.980;2023-12-04T08:00:07;81.18;;;41.03;;
29210;SDS011;16250;49.932;10.980;2023-12-04T08:02:32;70.43;;;36.58;;
29210;SDS011;16250;49.932;10.980;2023-12-04T08:04:58;66.90;;;35.45;;
29210;SDS011;16250;49.932;10.980;2023-12-04T08:07:23;68.10;;;36.13;;
29210;SDS011;16250;49.932;10.980;2023-12-04T08:09:49;61.05;;;32.25;;
29210;SDS011;16250;49.932;10.980;2023-12-04T08:12:15;64.90;;;44.03;;
29210;SDS011;16250;49.932;10.980;2023-12-04T08:14:40;51.78;;;30.23;;
29210;SDS011;16250;49.932;10.980;2023-12-04T08:17:05;53.25;;;41.45;;
29210;SDS011;16250;49.932;10.980;2023-12-04T08:19:31;50.90;;;29.95;;
29210;SDS011;16250;49.932;10.980;2023-12-04T08:21:57;57.55;;;31.42;;
29210;SDS011;16250;49.932;10.980;2023-12-04T08:24:22;65.93;;;36.40;;
29210;SDS011;16250;49.932;10.980;2023-12-04T08:26:47;63.15;;;35.55;;
29210;SDS011;16250;49.932;10.980;2023-12-04T08:29:13;61.13;;;35.85;;
29210;SDS011;16250;49.932;10.980;2023-12-04T08:31:39;62.22;;;35.40;;
29210;SDS011;16250;49.932;10.980;2023-12-04T08:34:04;50.80;;;29.67;;
29210;SDS011;16250;49.932;10.980;2023-12-04T08:36:29;47.67;;;27.83;;
29210;SDS011;16250;49.932;10.980;2023-12-04T08:38:55;48.70;;;33.22;;
29210;SDS011;16250;49.932;10.980;2023-12-04T08:41:20;43.10;;;25.42;;
29210;SDS011;16250;49.932;10.980;2023-12-04T08:43:46;48.63;;;28.63;;
29210;SDS011;16250;49.932;10.980;2023-12-04T08:46:12;49.28;;;30.70;;
29210;SDS011;16250;49.932;10.980;2023-12-04T08:48:40;50.17;;;31.05;;
29210;SDS011;16250;49.932;10.980;2023-12-04T08:51:06;51.83;;;30.92;;
29210;SDS011;16250;49.932;10.980;2023-12-04T08:53:33;52.50;;;39.83;;
29210;SDS011;16250;49.932;10.980;2023-12-04T08:55:58;53.75;;;30.42;;
29210;SDS011;16250;49.932;10.980;2023-12-04T08:58:24;62.28;;;36.33;;
29210;SDS011;16250;49.932;10.980;2023-12-04T09:00:49;63.30;;;37.75;;
29210;SDS011;16250;49.932;10.980;2023-12-04T09:03:14;61.65;;;36.38;;
29210;SDS011;16250;49.932;10.980;2023-12-04T09:05:40;66.35;;;39.45;;
29210;SDS011;16250;49.932;10.980;2023-12-04T09:08:05;64.80;;;38.00;;
29210;SDS011;16250;49.932;10.980;2023-12-04T09:10:31;68.53;;;38.30;;
29210;SDS011;16250;49.932;10.980;2023-12-04T09:12:57;59.25;;;35.65;;
29210;SDS011;16250;49.932;10.980;2023-12-04T09:15:22;59.03;;;35.17;;
29210;SDS011;16250;49.932;10.980;2023-12-04T09:17:48;52.13;;;32.45;;
29210;SDS011;16250;49.932;10.980;2023-12-04T09:20:13;42.97;;;28.33;;
29210;SDS011;16250;49.932;10.980;2023-12-04T09:22:38;47.65;;;27.90;;
29210;SDS011;16250;49.932;10.980;2023-12-04T09:25:05;40.17;;;26.15;;
29210;SDS011;16250;49.932;10.980;2023-12-04T09:27:31;35.85;;;23.65;;
29210;SDS011;16250;49.932;10.980;2023-12-04T09:29:56;38.75;;;23.80;;
29210;SDS011;16250;49.932;10.980;2023-12-04T09:32:22;37.42;;;25.00;;
29210;SDS011;16250;49.932;10.980;2023-12-04T09:34:47;37.67;;;23.50;;
29210;SDS011;16250;49.932;10.980;2023-12-04T09:37:13;37.95;;;29.00;;
29210;SDS011;16250;49.932;10.980;2023-12-04T09:39:39;32.47;;;20.63;;
29210;SDS011;16250;49.932;10.980;2023-12-04T09:42:04;34.22;;;23.60;;
29210;SDS011;16250;49.932;10.980;2023-12-04T09:44:30;35.10;;;23.05;;
29210;SDS011;16250;49.932;10.980;2023-12-04T09:46:55;35.75;;;29.60;;
29210;SDS011;16250;49.932;10.980;2023-12-04T09:49:21;43.38;;;26.83;;
29210;SDS011;16250;49.932;10.980;2023-12-04T09:51:47;44.83;;;27.45;;
29210;SDS011;16250;49.932;10.980;2023-12-04T09:54:13;32.00;;;24.75;;
29210;SDS011;16250;49.932;10.980;2023-12-04T09:56:42;34.33;;;22.48;;
29210;SDS011;16250;49.932;10.980;2023-12-04T09:59:08;41.90;;;27.35;;
29210;SDS011;16250;49.932;10.980;2023-12-04T10:01:34;46.75;;;27.88;;
29210;SDS011;16250;49.932;10.980;2023-12-04T10:04:01;43.40;;;27.67;;
29210;SDS011;16250;49.932;10.980;2023-12-04T10:06:30;39.92;;;29.58;;
29210;SDS011;16250;49.932;10.980;2023-12-04T10:08:56;41.42;;;30.90;;
29210;SDS011;16250;49.932;10.980;2023-12-04T10:11:23;39.72;;;25.40;;
29210;SDS011;16250;49.932;10.980;2023-12-04T10:13:49;37.85;;;25.35;;
29210;SDS011;16250;49.932;10.980;2023-12-04T10:16:24;38.50;;;25.15;;
29210;SDS011;16250;49.932;10.980;2023-12-04T10:18:56;48.63;;;32.47;;
29210;SDS011;16250;49.932;10.980;2023-12-04T10:21:22;28.95;;;19.27;;
29210;SDS011;16250;49.932;10.980;2023-12-04T10:23:47;26.05;;;18.90;;
29210;SDS011;16250;49.932;10.980;2023-12-04T10:26:16;28.52;;;25.45;;
29210;SDS011;16250;49.932;10.980;2023-12-04T10:28:44;28.20;;;24.27;;
29210;SDS011;16250;49.932;10.980;2023-12-04T10:31:23;28.05;;;19.50;;
29210;SDS011;16250;49.932;10.980;2023-12-04T10:33:49;23.85;;;21.17;;
29210;SDS011;16250;49.932;10.980;2023-12-04T10:36:14;23.90;;;21.40;;
29210;SDS011;16250;49.932;10.980;2023-12-04T10:38:40;30.65;;;21.77;;
29210;SDS011;16250;49.932;10.980;2023-12-04T10:41:12;34.65;;;30.63;;
29210;SDS011;16250;49.932;10.980;2023-12-04T10:43:46;26.90;;;23.00;;
29210;SDS011;16250;49.932;10.980;2023-12-04T10:46:12;26.67;;;19.48;;
29210;SDS011;16250;49.932;10.980;2023-12-04T10:48:37;30.27;;;23.75;;
29210;SDS011;16250;49.932;10.980;2023-12-04T10:51:03;30.40;;;26.63;;
29210;SDS011;16250;49.932;10.980;2023-12-04T10:53:30;29.63;;;24.52;;
29210;SDS011;16250;49.932;10.980;2023-12-04T10:55:56;24.48;;;21.85;;
29210;SDS011;16250;49.932;10.980;2023-12-04T10:58:22;28.38;;;19.20;;
29210;SDS011;16250;49.932;10.980;2023-12-04T11:00:51;29.15;;;25.33;;
29210;SDS011;16250;49.932;10.980;2023-12-04T11:03:31;26.38;;;22.95;;
29210;SDS011;16250;49.932;10.980;2023-12-04T11:06:00;25.50;;;22.73;;
29210;SDS011;16250;49.932;10.980;2023-12-04T11:08:28;26.25;;;22.70;;
29210;SDS011;16250;49.932;10.980;2023-12-04T11:10:56;25.15;;;20.85;;
29210;SDS011;16250;49.932;10.980;2023-12-04T11:13:27;19.52;;;17.25;;
29210;SDS011;16250;49.932;10.980;2023-12-04T11:15:55;14.27;;;12.77;;
29210;SDS011;16250;49.932;10.980;2023-12-04T11:18:23;14.27;;;12.77;;
29210;SDS011;16250;49.932;10.980;2023-12-04T11:20:54;13.38;;;11.77;;
29210;SDS011;16250;49.932;10.980;2023-12-04T11:23:23;14.00;;;12.10;;
29210;SDS011;16250;49.932;10.980;2023-12-04T11:25:49;14.15;;;12.57;;
29210;SDS011;16250;49.932;10.980;2023-12-04T11:28:14;14.77;;;11.63;;
29210;SDS011;16250;49.932;10.980;2023-12-04T11:30:41;12.93;;;11.38;;
29210;SDS011;16250;49.932;10.980;2023-12-04T11:33:06;12.85;;;11.50;;
29210;SDS011;16250;49.932;10.980;2023-12-04T11:35:33;14.10;;;11.20;;
29210;SDS011;16250;49.932;10.980;2023-12-04T11:37:58;11.45;;;9.65;;
29210;SDS011;16250;49.932;10.980;2023-12-04T11:40:24;12.55;;;10.68;;
29210;SDS011;16250;49.932;10.980;2023-12-04T11:42:49;11.13;;;9.73;;
29210;SDS011;16250;49.932;10.980;2023-12-04T11:45:18;10.35;;;9.32;;
29210;SDS011;16250;49.932;10.980;2023-12-04T11:47:48;11.05;;;9.90;;
29210;SDS011;16250;49.932;10.980;2023-12-04T11:50:15;12.20;;;9.75;;
29210;SDS011;16250;49.932;10.980;2023-12-04T11:52:40;16.15;;;10.68;;
29210;SDS011;16250;49.932;10.980;2023-12-04T11:55:06;11.52;;;9.23;;
29210;SDS011;16250;49.932;10.980;2023-12-04T11:57:33;15.32;;;10.10;;
29210;SDS011;16250;49.932;10.980;2023-12-04T12:02:40;9.55;;;8.63;;
29210;SDS011;16250;49.932;10.980;2023-12-04T12:05:05;10.25;;;8.98;;
29210;SDS011;16250;49.932;10.980;2023-12-04T12:07:32;11.93;;;9.25;;
29210;SDS011;16250;49.932;10.980;2023-12-04T12:09:58;9.95;;;8.90;;
29210;SDS011;16250;49.932;10.980;2023-12-04T12:12:25;10.35;;;9.25;;
29210;SDS011;16250;49.932;10.980;2023-12-04T12:14:51;11.57;;;9.20;;
29210;SDS011;16250;49.932;10.980;2023-12-04T12:17:16;10.07;;;8.98;;
29210;SDS011;16250;49.932;10.980;2023-12-04T12:19:41;10.70;;;8.98;;
29210;SDS011;16250;49.932;10.980;2023-12-04T12:22:07;10.32;;;8.57;;
29210;SDS011;16250;49.932;10.980;2023-12-04T12:24:32;10.63;;;9.18;;
29210;SDS011;16250;49.932;10.980;2023-12-04T12:26:58;10.48;;;8.93;;
29210;SDS011;16250;49.932;10.980;2023-12-04T12:29:24;14.70;;;9.90;;
29210;SDS011;16250;49.932;10.980;2023-12-04T12:31:49;11.73;;;10.05;;
29210;SDS011;16250;49.932;10.980;2023-12-04T12:34:16;10.95;;;9.75;;
29210;SDS011;16250;49.932;10.980;2023-12-04T12:36:42;11.85;;;10.27;;
29210;SDS011;16250;49.932;10.980;2023-12-04T12:39:07;12.30;;;10.63;;
29210;SDS011;16250;49.932;10.980;2023-12-04T12:41:33;11.23;;;10.02;;
29210;SDS011;16250;49.932;10.980;2023-12-04T12:44:00;11.98;;;9.98;;
29210;SDS011;16250;49.932;10.980;2023-12-04T12:46:26;14.00;;;9.55;;
29210;SDS011;16250;49.932;10.980;2023-12-04T12:48:52;10.45;;;9.35;;
29210;SDS011;16250;49.932;10.980;2023-12-04T12:51:17;12.90;;;10.25;;
29210;SDS011;16250;49.932;10.980;2023-12-04T12:53:43;12.80;;;11.02;;
29210;SDS011;16250;49.932;10.980;2023-12-04T12:56:09;11.82;;;9.38;;
29210;SDS011;16250;49.932;10.980;2023-12-04T12:58:35;11.05;;;8.98;;
29210;SDS011;16250;49.932;10.980;2023-12-04T13:01:00;11.70;;;9.57;;
29210;SDS011;16250;49.932;10.980;2023-12-04T13:03:26;12.35;;;9.48;;
29210;SDS011;16250;49.932;10.980;2023-12-04T13:05:53;11.50;;;9.15;;
29210;SDS011;16250;49.932;10.980;2023-12-04T13:08:18;11.80;;;9.27;;
29210;SDS011;16250;49.932;10.980;2023-12-04T13:10:44;8.85;;;7.95;;
29210;SDS011;16250;49.932;10.980;2023-12-04T13:13:13;9.45;;;8.40;;
29210;SDS011;16250;49.932;10.980;2023-12-04T13:15:38;20.17;;;9.70;;
29210;SDS011;16250;49.932;10.980;2023-12-04T13:18:06;13.18;;;10.15;;
29210;SDS011;16250;49.932;10.980;2023-12-04T13:20:31;10.80;;;8.88;;
29210;SDS011;16250;49.932;10.980;2023-12-04T13:22:57;8.95;;;7.93;;
29210;SDS011;16250;49.932;10.980;2023-12-04T13:25:22;9.88;;;8.43;;
29210;SDS011;16250;49.932;10.980;2023-12-04T13:27:47;9.50;;;8.35;;
29210;SDS011;16250;49.932;10.980;2023-12-04T13:30:14;9.80;;;8.13;;
29210;SDS011;16250;49.932;10.980;2023-12-04T13:32:39;10.15;;;8.27;;
29210;SDS011;16250;49.932;10.980;2023-12-04T13:35:05;9.95;;;8.85;;
29210;SDS011;16250;49.932;10.980;2023-12-04T13:37:34;9.98;;;8.90;;
29210;SDS011;16250;49.932;10.980;2023-12-04T13:40:01;11.38;;;8.82;;
29210;SDS011;16250;49.932;10.980;2023-12-04T13:42:37;10.75;;;8.60;;
29210;SDS011;16250;49.932;10.980;2023-12-04T13:45:22;11.68;;;8.70;;
29210;SDS011;16250;49.932;10.980;2023-12-04T13:47:48;11.60;;;9.23;;
29210;SDS011;16250;49.932;10.980;2023-12-04T13:50:14;9.13;;;8.23;;
29210;SDS011;16250;49.932;10.980;2023-12-04T13:52:39;10.40;;;8.85;;
29210;SDS011;16250;49.932;10.980;2023-12-04T13:55:05;14.18;;;9.15;;
29210;SDS011;16250;49.932;10.980;2023-12-04T13:57:40;13.75;;;8.35;;
29210;SDS011;16250;49.932;10.980;2023-12-04T14:00:25;9.60;;;8.27;;
29210;SDS011;16250;49.932;10.980;2023-12-04T14:02:51;11.52;;;9.25;;
29210;SDS011;16250;49.932;10.980;2023-12-04T14:05:21;10.20;;;8.95;;
29210;SDS011;16250;49.932;10.980;2023-12-04T14:07:47;12.70;;;9.25;;